Time;durP1;ratioP1;P1;durP2;ratioP2;P2;SDS_P1;SDS_P2;PMS_P1;PMS_P2;Temp;Humidity;BMP_temperature;BMP_pressure;BME280_temperature;BME280_humidity;BME280_pressure;Samples;Min_cycle;Max_cycle;Signal;HPM_P1;HPM_P2
2021/06/19 00:00:33;;;;;;;12.48;6.53;;;23.80;74.50;;;;;;5085290;28;20045;-79
2021/06/19 00:03:00;;;;;;;17.65;7.65;;;23.90;74.80;;;;;;5077388;28;20051;-79
2021/06/19 00:05:27;;;;;;;16.98;8.02;;;23.90;74.90;;;;;;5092199;28;20033;-79
2021/06/19 00:07:54;;;;;;;18.83;8.55;;;24.00;75.00;;;;;;5082300;28;20037;-79
2021/06/19 00:10:26;;;;;;;14.15;7.65;;;24.00;75.90;;;;;;5079226;28;20037;-78
2021/06/19 00:12:59;;;;;;;16.52;8.25;;;23.90;75.60;;;;;;5076065;28;20036;-79
2021/06/19 00:15:25;;;;;;;17.65;8.95;;;23.90;75.80;;;;;;5077484;28;20032;-80
2021/06/19 00:17:52;;;;;;;12.45;7.95;;;24.00;75.60;;;;;;5075858;28;20037;-78
2021/06/19 00:20:24;;;;;;;13.15;8.07;;;24.00;76.00;;;;;;5076725;28;20394;-78
2021/06/19 00:22:51;;;;;;;11.05;6.85;;;24.00;76.00;;;;;;5076043;28;20032;-78
2021/06/19 00:25:19;;;;;;;11.77;8.23;;;24.00;76.00;;;;;;5081870;28;20028;-78
2021/06/19 00:27:46;;;;;;;13.80;6.63;;;24.00;76.60;;;;;;5088556;28;20052;-78
2021/06/19 00:30:14;;;;;;;12.82;7.15;;;23.90;76.40;;;;;;5082356;28;20393;-77
2021/06/19 00:32:42;;;;;;;9.63;6.97;;;23.90;76.70;;;;;;5083470;28;20047;-78
2021/06/19 00:35:09;;;;;;;13.32;7.43;;;23.90;77.40;;;;;;5075825;28;20045;-78
2021/06/19 00:37:36;;;;;;;16.88;6.70;;;23.80;77.80;;;;;;5075963;28;20214;-78
2021/06/19 00:40:05;;;;;;;11.85;7.20;;;23.60;78.60;;;;;;5093297;28;20051;-79
2021/06/19 00:42:31;;;;;;;14.05;6.78;;;23.50;78.80;;;;;;5082496;28;20056;-78
2021/06/19 00:44:58;;;;;;;11.18;6.88;;;23.50;79.30;;;;;;5075913;28;20051;-78
2021/06/19 00:47:25;;;;;;;11.63;6.95;;;23.60;79.70;;;;;;5075227;28;20029;-78
2021/06/19 00:49:52;;;;;;;11.32;6.60;;;23.50;80.00;;;;;;5075803;28;20048;-78
2021/06/19 00:52:19;;;;;;;11.30;7.13;;;23.60;80.30;;;;;;5075445;28;20043;-78
2021/06/19 00:54:46;;;;;;;14.63;8.13;;;23.60;81.00;;;;;;5075933;28;20036;-78
2021/06/19 00:57:13;;;;;;;10.93;7.38;;;23.50;80.60;;;;;;5075468;28;20484;-78
2021/06/19 00:59:41;;;;;;;13.38;7.38;;;23.40;81.00;;;;;;5074590;28;20040;-77
2021/06/19 01:02:07;;;;;;;10.23;7.28;;;23.50;80.80;;;;;;5074713;28;20029;-78
2021/06/19 01:04:36;;;;;;;12.95;6.95;;;23.50;80.90;;;;;;5075009;28;20056;-77
2021/06/19 01:07:03;;;;;;;10.13;7.43;;;23.40;81.90;;;;;;5075737;28;20051;-79
2021/06/19 01:09:32;;;;;;;15.10;7.30;;;23.20;83.70;;;;;;5075505;28;20039;-78
2021/06/19 01:11:58;;;;;;;11.45;6.88;;;23.10;85.60;;;;;;5075993;28;20040;-77
2021/06/19 01:14:25;;;;;;;12.15;7.00;;;23.00;87.00;;;;;;5076155;28;20385;-77
2021/06/19 01:16:51;;;;;;;13.07;7.85;;;23.00;88.00;;;;;;5075636;28;20091;-76
2021/06/19 01:19:17;;;;;;;13.18;7.75;;;23.00;88.70;;;;;;5083656;28;20036;-77
2021/06/19 01:21:44;;;;;;;12.30;7.80;;;22.90;90.10;;;;;;5075407;28;20036;-81
2021/06/19 01:24:15;;;;;;;8.60;7.57;;;22.80;91.10;;;;;;5075496;28;20048;-77
2021/06/19 01:26:42;;;;;;;12.73;8.52;;;22.80;91.90;;;;;;5075821;28;20462;-77
2021/06/19 01:29:09;;;;;;;13.43;7.85;;;22.70;92.70;;;;;;5076763;28;20040;-78
2021/06/19 01:31:38;;;;;;;14.52;8.52;;;22.70;93.50;;;;;;5078045;28;20039;-75
2021/06/19 01:34:04;;;;;;;15.40;8.25;;;22.70;94.00;;;;;;5088320;28;20032;-74
2021/06/19 01:36:30;;;;;;;13.15;8.35;;;22.70;94.60;;;;;;5096317;28;20043;-75
2021/06/19 01:38:57;;;;;;;14.48;8.15;;;22.70;95.30;;;;;;5094431;28;20035;-76
2021/06/19 01:41:26;;;;;;;12.60;8.00;;;22.70;95.80;;;;;;5078593;28;20033;-76
2021/06/19 01:44:01;;;;;;;10.27;7.72;;;22.80;96.00;;;;;;5074865;28;20390;-76
2021/06/19 01:46:29;;;;;;;14.40;9.18;;;22.80;96.20;;;;;;5075966;28;20029;-76
2021/06/19 01:48:55;;;;;;;13.07;8.10;;;22.80;96.70;;;;;;5074418;28;20401;-76
2021/06/19 01:51:21;;;;;;;14.68;8.75;;;22.80;96.90;;;;;;5074308;28;20391;-77
2021/06/19 01:53:48;;;;;;;13.02;8.00;;;22.80;97.20;;;;;;5078815;28;20041;-77
2021/06/19 01:56:15;;;;;;;12.85;8.65;;;22.80;97.50;;;;;;5087686;28;20028;-76
2021/06/19 01:58:42;;;;;;;10.55;8.10;;;22.80;97.90;;;;;;5074029;28;20063;-78
2021/06/19 02:01:14;;;;;;;10.70;8.25;;;22.80;98.40;;;;;;5087571;28;20040;-79
2021/06/19 02:03:42;;;;;;;16.25;8.90;;;22.70;98.80;;;;;;5077212;28;20063;-78
2021/06/19 02:06:09;;;;;;;15.27;7.93;;;22.70;99.50;;;;;;5093031;28;20040;-79
2021/06/19 02:08:39;;;;;;;13.85;9.73;;;22.60;99.90;;;;;;5078778;28;20037;-78
2021/06/19 02:11:07;;;;;;;12.00;8.02;;;22.60;99.90;;;;;;5082097;28;20028;-78
2021/06/19 02:13:35;;;;;;;13.93;8.25;;;22.50;99.90;;;;;;5078364;28;20401;-78
2021/06/19 02:16:04;;;;;;;12.50;7.47;;;22.50;99.90;;;;;;5075956;28;20047;-78
2021/06/19 02:18:30;;;;;;;13.75;8.38;;;22.50;99.90;;;;;;5073797;28;20040;-78
2021/06/19 02:20:56;;;;;;;16.85;8.63;;;22.60;99.90;;;;;;5078431;28;20036;-78
2021/06/19 02:23:25;;;;;;;12.73;8.45;;;22.50;99.90;;;;;;5088552;28;20028;-78
2021/06/19 02:25:52;;;;;;;13.23;7.95;;;22.50;99.90;;;;;;5072786;28;20028;-79
2021/06/19 02:28:21;;;;;;;10.15;7.88;;;22.50;99.90;;;;;;5073003;28;20040;-77
2021/06/19 02:30:49;;;;;;;12.55;8.85;;;22.40;99.90;;;;;;5089828;28;20436;-79
2021/06/19 02:33:15;;;;;;;12.73;8.57;;;22.40;99.90;;;;;;5076173;28;20040;-79
2021/06/19 02:35:44;;;;;;;11.68;8.48;;;22.40;99.90;;;;;;5077499;28;20033;-78
2021/06/19 02:38:11;;;;;;;14.00;8.88;;;22.40;99.90;;;;;;5072798;28;20060;-79
2021/06/19 02:40:42;;;;;;;14.75;8.38;;;22.50;99.90;;;;;;5070696;28;20048;-78
2021/06/19 02:43:10;;;;;;;15.40;7.88;;;22.50;99.90;;;;;;5087759;28;20458;-78
2021/06/19 02:45:36;;;;;;;13.48;8.55;;;22.40;99.90;;;;;;5071789;28;20045;-78
2021/06/19 02:48:03;;;;;;;12.82;8.98;;;22.30;99.90;;;;;;5073083;28;20413;-79
2021/06/19 02:50:32;;;;;;;14.63;8.10;;;22.10;99.90;;;;;;5074129;28;20035;-78
2021/06/19 02:53:00;;;;;;;14.37;9.93;;;22.00;99.90;;;;;;5072488;28;20029;-77
2021/06/19 02:55:29;;;;;;;14.55;8.65;;;21.90;99.90;;;;;;5072972;28;20044;-77
2021/06/19 02:57:55;;;;;;;12.32;8.70;;;21.80;99.90;;;;;;5086758;28;20483;-77
2021/06/19 03:00:22;;;;;;;12.88;8.15;;;21.70;99.90;;;;;;5072504;28;20385;-77
2021/06/19 03:02:49;;;;;;;13.25;9.43;;;21.80;99.90;;;;;;5072336;28;20032;-77
2021/06/19 03:05:18;;;;;;;15.63;10.55;;;21.70;99.90;;;;;;5087392;28;20363;-77
2021/06/19 03:07:45;;;;;;;14.75;9.38;;;21.60;99.90;;;;;;5071747;28;20047;-77
2021/06/19 03:10:15;;;;;;;11.88;8.65;;;21.60;99.90;;;;;;5071801;28;20028;-77
2021/06/19 03:12:41;;;;;;;15.75;9.25;;;21.40;99.90;;;;;;5071392;28;20037;-77
2021/06/19 03:15:08;;;;;;;20.85;8.63;;;21.40;99.90;;;;;;5072664;28;20028;-78
2021/06/19 03:17:35;;;;;;;13.25;9.13;;;21.30;99.90;;;;;;5074475;28;20420;-77
2021/06/19 03:20:05;;;;;;;15.18;9.45;;;21.30;99.90;;;;;;5072197;28;20051;-78
2021/06/19 03:22:53;;;;;;;13.38;9.65;;;21.30;99.90;;;;;;5072348;28;20339;-77
2021/06/19 03:25:26;;;;;;;16.83;9.88;;;21.30;99.90;;;;;;5072491;28;20477;-78
2021/06/19 03:27:53;;;;;;;14.93;10.27;;;21.20;99.90;;;;;;5071746;28;20048;-78
2021/06/19 03:30:21;;;;;;;14.75;9.60;;;21.20;99.90;;;;;;5072207;28;20039;-77
2021/06/19 03:32:47;;;;;;;12.73;10.15;;;21.10;99.90;;;;;;5072267;28;20043;-78
2021/06/19 03:35:15;;;;;;;17.65;10.13;;;21.00;99.90;;;;;;5072152;28;20037;-78
2021/06/19 03:37:44;;;;;;;15.93;10.52;;;21.00;99.90;;;;;;5071597;28;20036;-78
2021/06/19 03:40:11;;;;;;;13.15;10.10;;;20.90;99.90;;;;;;5072237;28;20354;-78
2021/06/19 03:42:41;;;;;;;16.08;10.32;;;20.90;99.90;;;;;;5082448;28;20377;-79
2021/06/19 03:45:09;;;;;;;14.73;10.23;;;20.80;99.90;;;;;;5073280;28;20393;-80
2021/06/19 03:47:37;;;;;;;12.40;9.85;;;20.80;99.90;;;;;;5076824;28;20029;-78
2021/06/19 03:50:04;;;;;;;15.93;10.32;;;20.80;99.90;;;;;;5079795;28;20037;-79
2021/06/19 03:52:31;;;;;;;12.20;9.82;;;20.80;99.90;;;;;;5077946;28;20041;-78
2021/06/19 03:54:57;;;;;;;14.98;9.88;;;20.90;99.90;;;;;;5075615;28;20035;-76
2021/06/19 03:57:25;;;;;;;17.02;10.60;;;20.90;99.90;;;;;;5072721;28;20056;-78
2021/06/19 03:59:53;;;;;;;13.52;10.02;;;20.80;99.90;;;;;;5070808;28;20398;-78
2021/06/19 04:02:20;;;;;;;18.52;11.73;;;20.80;99.90;;;;;;5072303;28;20028;-77
2021/06/19 04:04:47;;;;;;;17.30;11.73;;;20.70;99.90;;;;;;5071053;28;20379;-77
2021/06/19 04:07:13;;;;;;;13.82;10.68;;;20.60;99.90;;;;;;5071864;28;20043;-77
2021/06/19 04:09:39;;;;;;;15.23;10.60;;;20.60;99.90;;;;;;5071635;28;20024;-78
2021/06/19 04:12:06;;;;;;;12.13;10.05;;;20.70;99.90;;;;;;5072053;28;20040;-78
2021/06/19 04:14:33;;;;;;;14.80;11.90;;;20.80;99.90;;;;;;5071877;28;20043;-78
2021/06/19 04:16:59;;;;;;;17.90;11.07;;;21.00;99.90;;;;;;5078242;28;20046;-78
2021/06/19 04:19:25;;;;;;;16.02;10.48;;;21.10;99.90;;;;;;5071201;28;20461;-78
2021/06/19 04:21:51;;;;;;;17.67;10.50;;;21.20;99.90;;;;;;5071914;28;20056;-78
2021/06/19 04:24:18;;;;;;;15.45;10.93;;;21.30;99.90;;;;;;5075413;28;20516;-78
2021/06/19 04:26:44;;;;;;;12.02;9.70;;;21.80;99.90;;;;;;5074970;28;20040;-78
2021/06/19 04:29:10;;;;;;;14.27;9.70;;;22.60;99.90;;;;;;5087086;28;20025;-78
2021/06/19 04:31:36;;;;;;;15.70;9.38;;;23.00;99.90;;;;;;5083961;28;20045;-78
2021/06/19 04:34:03;;;;;;;13.52;8.43;;;23.50;99.90;;;;;;5089495;28;20122;-78
2021/06/19 04:36:29;;;;;;;15.05;9.18;;;24.00;99.90;;;;;;5091749;28;20043;-79
2021/06/19 04:38:55;;;;;;;16.85;9.10;;;24.20;99.50;;;;;;5089692;28;20040;-78
2021/06/19 04:41:29;;;;;;;13.50;9.00;;;24.00;98.80;;;;;;5076222;28;20044;-78
2021/06/19 04:46:25;;;;;;;12.85;8.73;;;24.20;99.30;;;;;;5078370;28;20041;-75
2021/06/19 04:48:52;;;;;;;12.60;8.65;;;24.80;97.30;;;;;;5084663;28;20040;-77
2021/06/19 04:51:18;;;;;;;11.40;8.02;;;25.40;94.20;;;;;;5089536;28;20024;-77
2021/06/19 04:53:45;;;;;;;12.35;7.80;;;25.70;92.80;;;;;;5074004;28;20516;-77
2021/06/19 04:56:11;;;;;;;11.20;7.50;;;26.30;91.20;;;;;;5075372;28;20036;-78
2021/06/19 04:58:38;;;;;;;9.70;7.82;;;27.30;88.80;;;;;;5084938;28;20045;-83
2021/06/19 05:01:05;;;;;;;16.70;8.27;;;27.60;83.50;;;;;;5082948;28;20039;-82
2021/06/19 05:03:31;;;;;;;12.40;8.10;;;27.90;80.90;;;;;;5084119;28;20039;-82
2021/06/19 05:06:00;;;;;;;11.63;7.22;;;28.60;78.50;;;;;;5080287;28;20402;-82
2021/06/19 05:08:26;;;;;;;13.70;8.60;;;29.20;76.90;;;;;;5079082;28;20222;-78
2021/06/19 05:10:52;;;;;;;11.77;8.50;;;29.80;73.20;;;;;;5076919;28;20036;-76
2021/06/19 05:13:18;;;;;;;12.10;7.45;;;30.00;72.90;;;;;;5075062;28;20404;-76
2021/06/19 05:15:48;;;;;;;12.15;7.25;;;30.10;71.50;;;;;;5073953;28;20032;-76
2021/06/19 05:18:14;;;;;;;12.07;8.27;;;30.30;68.50;;;;;;5074479;28;20035;-76
2021/06/19 05:20:40;;;;;;;14.60;7.88;;;30.20;68.40;;;;;;5073963;28;20039;-75
2021/06/19 05:23:09;;;;;;;11.73;7.13;;;30.60;64.70;;;;;;5073651;28;20028;-76
2021/06/19 05:25:39;;;;;;;12.02;7.38;;;30.70;64.40;;;;;;5074004;28;20484;-76
2021/06/19 05:28:05;;;;;;;;;;;31.50;61.50;;;;;;5091898;28;20495;-76
2021/06/19 05:30:31;;;;;;;14.18;7.03;;;30.90;61.90;;;;;;5073455;28;19909;-76
2021/06/19 05:32:57;;;;;;;11.52;7.32;;;30.60;62.40;;;;;;5072474;28;20051;-76
2021/06/19 05:35:24;;;;;;;14.70;7.90;;;30.50;62.80;;;;;;5074122;28;20024;-76
2021/06/19 05:37:51;;;;;;;11.38;7.85;;;30.30;63.70;;;;;;5085362;28;20039;-75
2021/06/19 05:40:17;;;;;;;12.73;7.63;;;29.70;64.70;;;;;;5073550;28;20461;-75
2021/06/19 05:42:43;;;;;;;13.80;6.75;;;30.00;64.30;;;;;;5073279;28;20037;-75
2021/06/19 05:45:10;;;;;;;11.68;8.05;;;30.20;64.00;;;;;;5074389;28;20472;-76
2021/06/19 05:47:36;;;;;;;8.20;6.20;;;30.50;62.20;;;;;;5082346;28;20474;-75
2021/06/19 05:50:04;;;;;;;10.30;6.93;;;31.10;61.30;;;;;;5073419;28;20045;-75
2021/06/19 05:52:30;;;;;;;12.38;6.75;;;31.90;60.60;;;;;;5074355;28;20033;-76
2021/06/19 05:54:56;;;;;;;10.50;7.60;;;32.60;58.00;;;;;;5074193;28;20385;-75
2021/06/19 05:57:23;;;;;;;12.57;6.80;;;33.60;56.70;;;;;;5085330;28;20052;-75
2021/06/19 05:59:49;;;;;;;11.07;6.57;;;32.80;56.90;;;;;;5097193;28;20032;-75
2021/06/19 06:02:15;;;;;;;11.30;6.70;;;32.30;57.20;;;;;;5085077;28;20049;-75
2021/06/19 06:04:42;;;;;;;13.13;7.47;;;32.00;58.20;;;;;;5055757;28;20035;-74
2021/06/19 06:07:08;;;;;;;10.90;6.35;;;31.70;58.50;;;;;;5080867;28;20040;-76
2021/06/19 06:09:35;;;;;;;11.00;6.32;;;32.00;58.10;;;;;;5073925;28;20043;-78
2021/06/19 06:12:01;;;;;;;9.43;6.88;;;30.80;59.70;;;;;;5079550;28;20032;-77
2021/06/19 06:14:28;;;;;;;9.20;6.82;;;30.80;60.20;;;;;;5073127;28;20486;-78
2021/06/19 06:16:54;;;;;;;10.27;6.75;;;31.10;58.70;;;;;;5072419;28;20500;-78
2021/06/19 06:19:22;;;;;;;9.05;6.60;;;30.10;61.60;;;;;;5080856;28;20053;-77
2021/06/19 06:21:48;;;;;;;9.13;5.50;;;29.80;62.20;;;;;;5072762;28;20029;-79
2021/06/19 06:24:15;;;;;;;7.28;4.88;;;30.00;60.10;;;;;;5073057;28;20024;-78
2021/06/19 06:26:42;;;;;;;7.28;4.75;;;30.30;58.90;;;;;;5071652;28;20048;-78
2021/06/19 06:29:08;;;;;;;8.93;4.38;;;30.70;59.50;;;;;;5072212;28;20067;-78
2021/06/19 06:31:35;;;;;;;6.78;4.50;;;31.20;56.90;;;;;;5072908;28;20028;-78
2021/06/19 06:34:01;;;;;;;6.47;4.55;;;31.10;57.60;;;;;;5072543;28;20036;-78
2021/06/19 06:36:27;;;;;;;7.85;5.47;;;31.40;56.70;;;;;;5072534;28;20512;-78
2021/06/19 06:38:54;;;;;;;7.50;4.30;;;31.40;56.20;;;;;;5072340;28;20051;-79
2021/06/19 06:41:24;;;;;;;8.40;4.18;;;30.40;58.60;;;;;;5072394;28;20028;-79
2021/06/19 06:43:50;;;;;;;6.07;4.28;;;29.70;58.50;;;;;;5072217;28;20055;-78
2021/06/19 06:46:16;;;;;;;5.97;3.53;;;29.20;59.40;;;;;;5072737;28;20461;-79
2021/06/19 06:48:43;;;;;;;5.10;3.63;;;29.50;57.30;;;;;;5083476;28;20457;-78
2021/06/19 06:51:09;;;;;;;5.60;3.10;;;29.70;57.90;;;;;;5073430;28;20032;-77
2021/06/19 06:53:38;;;;;;;4.55;3.42;;;29.00;59.50;;;;;;5071610;28;20045;-77
2021/06/19 06:56:05;;;;;;;5.35;3.28;;;30.40;58.40;;;;;;5072163;28;20036;-75
2021/06/19 06:58:31;;;;;;;7.20;3.47;;;31.30;54.00;;;;;;5081331;28;20051;-75
2021/06/19 07:00:57;;;;;;;11.35;3.85;;;33.10;52.00;;;;;;5077577;28;20029;-75
2021/06/19 07:03:23;;;;;;;6.63;3.63;;;32.30;52.30;;;;;;5072412;28;20375;-75
2021/06/19 07:05:50;;;;;;;5.72;3.60;;;32.10;54.20;;;;;;5086203;28;20035;-76
2021/06/19 07:08:16;;;;;;;9.35;3.53;;;30.80;56.20;;;;;;5072508;28;20036;-75
2021/06/19 07:10:42;;;;;;;10.57;3.80;;;29.70;57.90;;;;;;5072019;28;20041;-76
2021/06/19 07:13:08;;;;;;;6.63;3.58;;;30.00;56.40;;;;;;5071869;28;20056;-76
2021/06/19 07:15:35;;;;;;;6.85;3.55;;;29.20;57.40;;;;;;5072488;28;20462;-77
2021/06/19 07:18:02;;;;;;;6.47;3.17;;;30.20;55.80;;;;;;5072004;28;20028;-75
2021/06/19 07:20:29;;;;;;;7.10;2.97;;;29.80;56.60;;;;;;5072878;28;20040;-75
2021/06/19 07:22:55;;;;;;;8.98;3.35;;;31.20;55.00;;;;;;5071799;28;20032;-74
2021/06/19 07:25:22;;;;;;;4.72;3.03;;;31.10;54.80;;;;;;5089568;28;20024;-76
2021/06/19 07:27:53;;;;;;;7.20;3.42;;;30.10;55.90;;;;;;5082332;28;20493;-76
2021/06/19 07:30:22;;;;;;;6.57;3.78;;;29.60;57.10;;;;;;5072334;28;20412;-76
2021/06/19 07:32:48;;;;;;;5.95;3.30;;;29.60;56.80;;;;;;5071698;28;20497;-76
2021/06/19 07:35:15;;;;;;;5.53;2.63;;;29.80;56.80;;;;;;5072033;28;20099;-75
2021/06/19 07:37:41;;;;;;;4.45;3.15;;;31.60;54.80;;;;;;5071011;28;20044;-75
2021/06/19 07:40:08;;;;;;;7.00;3.75;;;32.90;51.30;;;;;;5087791;28;20047;-76
2021/06/19 07:42:38;;;;;;;5.82;3.15;;;32.60;51.20;;;;;;5072348;28;20032;-76
2021/06/19 07:45:07;;;;;;;5.65;3.55;;;31.30;52.70;;;;;;5072561;28;20036;-76
2021/06/19 07:47:34;;;;;;;6.15;3.13;;;30.40;54.50;;;;;;5072084;28;20035;-76
2021/06/19 07:50:00;;;;;;;6.07;3.30;;;31.40;54.30;;;;;;5070583;28;20044;-75
2021/06/19 07:52:26;;;;;;;5.47;3.15;;;32.70;52.30;;;;;;5071643;28;20039;-76
2021/06/19 07:54:53;;;;;;;11.15;3.67;;;31.80;52.60;;;;;;5072089;28;20040;-75
2021/06/19 07:57:22;;;;;;;6.72;3.28;;;31.20;53.40;;;;;;5073387;28;20047;-76
2021/06/19 07:59:48;;;;;;;;;;;31.50;53.40;;;;;;5075915;28;20461;-75
2021/06/19 08:02:14;;;;;;;6.25;3.55;;;31.70;53.60;;;;;;5094364;28;19923;-75
2021/06/19 08:04:40;;;;;;;6.22;3.35;;;32.60;52.10;;;;;;5078806;28;20102;-75
2021/06/19 08:07:07;;;;;;;8.35;3.80;;;31.70;52.40;;;;;;5075172;28;20043;-78
2021/06/19 08:09:33;;;;;;;8.93;4.00;;;32.10;52.20;;;;;;5075517;28;20033;-76
2021/06/19 08:12:00;;;;;;;6.68;4.22;;;30.90;53.70;;;;;;5074840;28;20048;-74
2021/06/19 08:14:26;;;;;;;8.50;4.20;;;31.10;54.10;;;;;;5075597;28;20044;-77
2021/06/19 08:16:53;;;;;;;8.95;3.80;;;31.50;52.80;;;;;;5074921;28;20450;-75
2021/06/19 08:19:20;;;;;;;8.68;4.80;;;31.30;53.80;;;;;;5075240;28;20025;-74
2021/06/19 08:21:46;;;;;;;6.47;3.55;;;31.10;54.80;;;;;;5074836;28;20029;-74
2021/06/19 08:24:13;;;;;;;5.70;4.03;;;32.60;53.20;;;;;;5074341;28;20037;-73
2021/06/19 08:26:39;;;;;;;6.00;4.30;;;32.50;52.60;;;;;;5075031;28;20037;-73
2021/06/19 08:29:07;;;;;;;8.50;5.22;;;32.90;52.40;;;;;;5074768;28;20036;-74
2021/06/19 08:31:38;;;;;;;13.10;6.00;;;33.70;52.70;;;;;;5075129;28;20032;-76
2021/06/19 08:34:06;;;;;;;9.95;5.93;;;34.50;51.40;;;;;;5074483;28;20035;-74
2021/06/19 08:36:32;;;;;;;14.15;6.20;;;33.40;51.70;;;;;;5074979;28;20032;-75
2021/06/19 08:39:00;;;;;;;13.63;6.82;;;31.50;53.90;;;;;;5074641;28;20028;-75
2021/06/19 08:41:27;;;;;;;10.70;6.03;;;30.50;55.80;;;;;;5081210;28;20492;-75
2021/06/19 08:43:54;;;;;;;12.80;6.63;;;32.00;54.70;;;;;;5074188;28;20540;-74
2021/06/19 08:46:22;;;;;;;10.07;6.80;;;33.80;51.10;;;;;;5075334;28;20036;-74
2021/06/19 08:48:52;;;;;;;12.88;6.80;;;33.40;51.60;;;;;;5074769;28;20059;-74
2021/06/19 08:51:23;;;;;;;10.48;6.38;;;31.60;54.10;;;;;;5074508;28;20028;-75
2021/06/19 08:53:50;;;;;;;9.95;6.85;;;32.70;53.20;;;;;;5073111;28;20056;-76
2021/06/19 08:56:18;;;;;;;10.65;7.68;;;32.70;52.90;;;;;;5074419;28;20041;-73
2021/06/19 08:58:45;;;;;;;9.18;6.63;;;31.30;54.10;;;;;;5074359;28;20400;-77
2021/06/19 09:01:15;;;;;;;10.70;6.65;;;31.50;54.30;;;;;;5074683;28;20032;-75
2021/06/19 09:03:41;;;;;;;11.50;7.43;;;32.10;53.10;;;;;;5075081;28;20381;-74
2021/06/19 09:06:27;;;;;;;11.52;6.53;;;31.50;53.80;;;;;;5074217;28;20028;-74
2021/06/19 09:09:05;;;;;;;7.55;5.93;;;31.00;55.10;;;;;;5074972;28;20035;-74
2021/06/19 09:11:33;;;;;;;8.50;5.93;;;30.50;55.40;;;;;;5075589;28;20052;-74
2021/06/19 09:14:05;;;;;;;12.65;6.28;;;31.70;55.80;;;;;;5073790;28;20059;-75
2021/06/19 09:16:31;;;;;;;7.72;5.18;;;32.90;53.40;;;;;;5074103;28;20029;-73
2021/06/19 09:18:57;;;;;;;5.53;4.25;;;32.50;54.10;;;;;;5090268;28;20385;-74
2021/06/19 09:21:29;;;;;;;10.20;4.00;;;33.20;52.10;;;;;;5074379;28;20036;-75
2021/06/19 09:23:56;;;;;;;8.15;5.05;;;32.30;52.90;;;;;;5073768;28;20036;-76
2021/06/19 09:26:30;;;;;;;7.18;4.50;;;31.60;53.40;;;;;;5074425;28;20043;-74
2021/06/19 09:29:15;;;;;;;8.15;4.95;;;31.90;54.30;;;;;;5073888;28;20028;-75
2021/06/19 09:31:41;;;;;;;8.40;5.50;;;33.00;53.00;;;;;;5085966;28;20044;-75
2021/06/19 09:34:16;;;;;;;10.23;5.68;;;32.60;53.30;;;;;;5073878;28;20394;-75
2021/06/19 09:36:46;;;;;;;7.63;5.05;;;32.60;52.30;;;;;;5073917;28;20370;-75
2021/06/19 09:39:14;;;;;;;16.38;6.60;;;32.50;52.90;;;;;;5073923;28;20039;-77
2021/06/19 09:41:51;;;;;;;7.45;4.80;;;31.80;54.20;;;;;;5074292;28;20028;-77
2021/06/19 09:44:33;;;;;;;7.15;5.95;;;31.70;54.20;;;;;;5087841;28;20468;-76
2021/06/19 09:46:59;;;;;;;11.93;6.15;;;31.50;54.30;;;;;;5090008;28;20036;-76
2021/06/19 09:49:31;;;;;;;10.40;5.85;;;31.40;55.20;;;;;;5090966;28;20043;-76
2021/06/19 09:51:58;;;;;;;11.02;5.90;;;32.20;53.20;;;;;;5091917;28;20410;-76
2021/06/19 09:54:24;;;;;;;10.25;6.28;;;32.00;53.70;;;;;;5077542;28;20040;-75
2021/06/19 09:56:53;;;;;;;11.35;6.47;;;32.00;55.00;;;;;;5072803;28;20033;-75
2021/06/19 09:59:29;;;;;;;;;;;32.20;53.40;;;;;;5074484;28;20327;-76
2021/06/19 10:02:01;;;;;;;8.90;6.05;;;31.70;53.80;;;;;;5072985;28;19909;-76
2021/06/19 10:04:31;;;;;;;12.77;6.38;;;31.30;53.90;;;;;;5073695;28;20477;-76
2021/06/19 10:06:59;;;;;;;10.18;6.40;;;31.30;54.60;;;;;;5073466;28;20409;-75
2021/06/19 10:09:25;;;;;;;9.13;6.50;;;31.40;54.30;;;;;;5074202;28;20035;-75
2021/06/19 10:11:54;;;;;;;9.52;6.35;;;32.20;53.30;;;;;;5082358;28;20469;-74
2021/06/19 10:14:23;;;;;;;10.77;6.40;;;32.30;53.00;;;;;;5080416;28;20051;-74
2021/06/19 10:16:55;;;;;;;11.02;6.60;;;32.60;53.50;;;;;;5078960;28;20794;-75
2021/06/19 10:19:26;;;;;;;15.35;6.95;;;32.50;52.10;;;;;;5087823;28;20039;-75
2021/06/19 10:21:54;;;;;;;11.02;6.32;;;32.20;53.40;;;;;;5080002;28;20032;-75
2021/06/19 10:24:22;;;;;;;9.80;6.78;;;31.70;53.10;;;;;;5087598;28;20047;-77
2021/06/19 10:26:50;;;;;;;9.57;6.50;;;31.50;53.60;;;;;;5072163;28;20048;-76
2021/06/19 10:29:18;;;;;;;10.20;6.28;;;31.10;54.60;;;;;;5073405;28;20464;-76
2021/06/19 10:31:52;;;;;;;10.82;5.68;;;31.40;53.70;;;;;;5073084;28;20032;-76
2021/06/19 10:34:23;;;;;;;9.63;5.43;;;31.80;55.90;;;;;;5072627;28;20041;-76
2021/06/19 10:36:52;;;;;;;11.15;6.45;;;32.30;53.30;;;;;;5072340;28;20168;-74
2021/06/19 10:39:42;;;;;;;12.18;5.45;;;32.60;53.40;;;;;;5073020;28;20029;-74
2021/06/19 10:42:32;;;;;;;6.55;4.45;;;32.70;50.60;;;;;;5072010;28;20466;-75
2021/06/19 10:45:04;;;;;;;10.73;5.28;;;32.10;50.90;;;;;;5072748;28;20386;-77
2021/06/19 10:47:54;;;;;;;11.07;5.47;;;31.90;51.40;;;;;;5087580;28;20155;-76
2021/06/19 10:50:24;;;;;;;13.48;4.93;;;31.30;52.40;;;;;;5073194;28;20382;-76
2021/06/19 10:53:02;;;;;;;12.60;5.47;;;31.60;52.40;;;;;;5073517;28;20397;-76
2021/06/19 10:55:29;;;;;;;12.15;4.85;;;32.20;51.00;;;;;;5087687;28;20036;-76
2021/06/19 10:58:15;;;;;;;10.82;5.22;;;32.40;50.40;;;;;;5070802;28;20053;-76
2021/06/19 11:00:50;;;;;;;9.93;5.18;;;32.90;50.00;;;;;;5072602;28;20048;-74
2021/06/19 11:03:37;;;;;;;11.40;4.63;;;33.30;49.40;;;;;;5073007;28;20029;-76
2021/06/19 11:06:20;;;;;;;11.88;5.60;;;32.80;49.70;;;;;;5071799;28;20053;-76
2021/06/19 11:09:15;;;;;;;10.25;5.35;;;31.70;49.80;;;;;;5082940;28;20037;-75
2021/06/19 11:11:56;;;;;;;12.95;4.88;;;31.40;52.30;;;;;;5078256;28;20032;-75
2021/06/19 11:14:41;;;;;;;13.95;5.32;;;32.10;51.30;;;;;;5087352;28;20037;-76
2021/06/19 11:17:10;;;;;;;9.32;4.70;;;32.90;49.60;;;;;;5078993;28;20484;-74
2021/06/19 11:19:47;;;;;;;9.23;5.22;;;33.00;49.90;;;;;;5071249;28;20486;-75
2021/06/19 11:22:31;;;;;;;9.30;4.65;;;33.10;50.00;;;;;;5071669;28;20036;-75
2021/06/19 11:25:09;;;;;;;14.05;4.35;;;33.00;49.20;;;;;;5071884;28;20040;-75
2021/06/19 11:27:48;;;;;;;7.63;3.47;;;33.30;47.80;;;;;;5072164;28;20462;-75
2021/06/19 11:30:38;;;;;;;9.77;4.05;;;33.30;46.30;;;;;;5072331;28;20035;-75
2021/06/19 11:33:17;;;;;;;11.70;4.63;;;32.90;47.80;;;;;;5074728;28;20041;-76
2021/06/19 11:35:45;;;;;;;7.57;3.45;;;32.80;49.20;;;;;;5076069;28;20048;-77
2021/06/19 11:38:11;;;;;;;7.90;3.88;;;32.20;48.10;;;;;;5075551;28;20039;-75
2021/06/19 11:40:38;;;;;;;7.72;4.28;;;32.20;47.80;;;;;;5074899;28;20051;-76
2021/06/19 11:43:08;;;;;;;9.23;3.53;;;32.40;47.30;;;;;;5075763;28;20043;-76
2021/06/19 11:45:37;;;;;;;10.98;4.70;;;32.10;47.30;;;;;;5091001;28;20397;-78
2021/06/19 11:48:04;;;;;;;8.73;4.77;;;31.80;48.40;;;;;;5075459;28;20032;-77
2021/06/19 11:50:31;;;;;;;7.95;3.42;;;31.80;49.00;;;;;;5089348;28;20070;-76
2021/06/19 11:53:17;;;;;;;6.78;2.92;;;32.30;47.60;;;;;;5075382;28;20458;-75
2021/06/19 11:55:43;;;;;;;10.30;4.38;;;32.30;47.70;;;;;;5075870;28;20397;-76
2021/06/19 11:58:11;;;;;;;10.27;4.10;;;32.30;47.90;;;;;;5081949;28;20059;-76
2021/06/19 12:00:56;;;;;;;8.73;4.63;;;32.20;48.10;;;;;;5080822;28;20359;-75
2021/06/19 12:03:23;;;;;;;7.28;4.10;;;32.10;48.20;;;;;;5075703;28;20020;-76
2021/06/19 12:05:50;;;;;;;7.07;3.95;;;32.60;47.30;;;;;;5075292;28;20040;-76
2021/06/19 12:08:26;;;;;;;10.32;4.80;;;32.70;47.10;;;;;;5075082;28;20037;-75
2021/06/19 12:10:52;;;;;;;12.25;4.50;;;33.20;48.10;;;;;;5089918;28;20032;-77
2021/06/19 12:13:32;;;;;;;8.82;4.38;;;33.40;46.80;;;;;;5075437;28;20104;-76
2021/06/19 12:16:01;;;;;;;10.43;4.15;;;33.70;46.50;;;;;;5075148;28;20059;-77
2021/06/19 12:18:27;;;;;;;8.05;3.53;;;34.10;46.40;;;;;;5074360;28;20048;-78
2021/06/19 12:21:08;;;;;;;8.40;4.22;;;33.40;46.10;;;;;;5073518;28;20064;-77
2021/06/19 12:23:37;;;;;;;9.95;4.82;;;32.90;46.90;;;;;;5074976;28;20032;-77
2021/06/19 12:26:22;;;;;;;8.75;3.55;;;32.80;47.30;;;;;;5075213;28;20474;-77
2021/06/19 12:28:49;;;;;;;9.85;4.45;;;33.10;47.50;;;;;;5075042;28;20037;-78
2021/06/19 12:31:21;;;;;;;11.02;4.47;;;33.40;47.30;;;;;;5075610;28;20020;-78
2021/06/19 12:33:56;;;;;;;7.13;3.97;;;33.50;47.00;;;;;;5075781;28;20043;-78
2021/06/19 12:36:23;;;;;;;10.18;3.63;;;33.80;47.10;;;;;;5081776;28;20025;-77
2021/06/19 12:38:51;;;;;;;9.13;3.90;;;33.70;47.40;;;;;;5077050;28;20032;-77
2021/06/19 12:41:17;;;;;;;10.88;4.25;;;34.00;46.50;;;;;;5075297;28;20052;-78
2021/06/19 12:43:54;;;;;;;8.98;3.90;;;34.10;47.00;;;;;;5075046;28;20036;-76
2021/06/19 12:46:23;;;;;;;10.52;3.92;;;33.90;47.30;;;;;;5074852;28;20036;-77
2021/06/19 12:49:01;;;;;;;9.35;3.90;;;33.80;46.80;;;;;;5073305;28;20040;-76
2021/06/19 12:51:39;;;;;;;10.38;4.05;;;33.90;47.20;;;;;;5074556;28;20028;-79